Flight Track Log - Related Links

Times and Time Zones

All times are in EST time to prevent confusion due to time zone crossing. See the UPS35 flight status page for this flight to view local times or setup timezone preferences in your user account.

Time Position Orientation Groundspeed Altitude Reporting Facility
EST Latitude Longitude Course Direction KTS MPH feet Rate Location/Type
Sun 06:18:43 AM -33.9545 151.1781 347° North 136 157  Level FlightAware ADS-B
Sun 06:19:03 AM -33.9398 151.1743 348° North 167 192 600 2,700 Climbing FlightAware ADS-B
Sun 06:19:23 AM -33.9255 151.1716 351° North 145 167 1,800 4,250 Climbing FlightAware ADS-B
Sun 06:19:27 AM -33.9221 151.1710 352° North 147 169 2,300 2,526 Climbing FlightAware ADS-B
Sun 06:19:42 AM -33.9129 151.1674 342° North 151 174 2,600 1,615 Climbing FlightAware ADS-B (YCVB)
Sun 06:19:53 AM -33.9069 151.1613 320° Northwest 155 178 3,000 2,667 Climbing FlightAware ADS-B
Sun 06:20:00 AM -33.9012 151.1546 315° West 154 177 3,400 1,448 Climbing FlightAware ADS-B (YPLB)
Sun 06:20:22 AM -33.8910 151.1412 313° West 184 212 3,700 857 Climbing FlightAware ADS-B (YCVB)
Sun 06:20:42 AM -33.8789 151.1242 311° West 229 264 4,000 1,050 Climbing FlightAware ADS-B (YCVB)
Sun 06:21:02 AM -33.8646 151.1030 309° West 261 300 4,400 1,400 Climbing FlightAware ADS-B (YCVB)
Sun 06:21:12 AM -33.8554 151.0903 311° West 290 334 4,700 1,333 Climbing FlightAware ADS-B
Sun 06:21:20 AM -33.8454 151.0769 312° West 300 345 4,800 783 Climbing FlightAware ADS-B (YPLB)
Sun 06:21:35 AM -33.8346 151.0631 313° West 323 372 5,000 1,263 Climbing FlightAware ADS-B
Sun 06:21:58 AM -33.8079 151.0319 316° Northwest 330 380 5,600 2,195 Climbing FlightAware ADS-B
Sun 06:22:16 AM -33.7863 151.0082 318° Northwest 330 380 6,500 3,231 Climbing FlightAware ADS-B
Sun 06:22:37 AM -33.7594 150.9805 319° Northwest 366 421 7,700 2,833 Climbing FlightAware ADS-B
Sun 06:22:52 AM -33.7406 150.9602 318° Northwest 376 433 8,200 2,690 Climbing FlightAware ADS-B
Sun 06:23:06 AM -33.7236 150.9413 317° Northwest 380 437 9,000 3,000 Climbing FlightAware ADS-B
Sun 06:23:26 AM -33.7000 150.9097 312° West 381 438 9,900 2,793 Climbing FlightAware ADS-B
Sun 06:24:04 AM -33.6563 150.8461 310° West 399 459 11,700 3,000 Climbing FlightAware ADS-B
Sun 06:24:20 AM -33.6328 150.8142 311° West 405 466 12,600 2,615 Climbing FlightAware ADS-B (YPLB)
Sun 06:24:43 AM -33.6045 150.7838 318° Northwest 418 481 13,400 2,267 Climbing FlightAware ADS-B
Sun 06:25:05 AM -33.5652 150.7630 336° Northwest 431 496 14,300 2,885 Climbing FlightAware ADS-B
Sun 06:25:35 AM -33.5034 150.7476 348° North 434 499 15,900 2,925 Climbing FlightAware ADS-B
Sun 06:26:25 AM -33.4081 150.7154 344° North 437 503 18,200 2,429 Climbing FlightAware ADS-B
Sun 06:26:59 AM -33.3319 150.6951 347° North 454 522 19,300 2,240 Climbing FlightAware ADS-B (YPLB)
Sun 06:27:40 AM -33.2559 150.6744 347° North 455 524 21,000 2,320 Climbing FlightAware ADS-B
Sun 06:28:14 AM -33.1831 150.6529 346° North 469 540 22,200 1,902 Climbing FlightAware ADS-B
Sun 06:28:21 AM -33.1611 150.6466 346° North 471 542 22,300 1,421 Climbing FlightAware ADS-B (YPLB)
Sun 06:28:52 AM -33.1464 150.6422 346° North 477 549 23,100 1,500 Climbing FlightAware ADS-B
Sun 06:29:25 AM -33.0300 150.6076 346° North 483 556 23,900 1,532 Climbing FlightAware ADS-B
Sun 06:29:39 AM -32.9921 150.5964 346° North 497 572 24,300 1,787 Climbing FlightAware ADS-B (YPLB)
Sun 06:30:12 AM -32.9520 150.5844 346° North 497 572 25,300 2,095 Climbing FlightAware ADS-B (YPLB)
Sun 06:30:42 AM -32.8570 150.5566 346° North 498 573 26,500 1,941 Climbing FlightAware ADS-B
Sun 06:31:20 AM -32.7903 150.5369 346° North 496 571 27,500 1,800 Climbing FlightAware ADS-B (YPLB)
Sun 06:31:52 AM -32.7023 150.5107 346° North 496 571 28,600 2,298 Climbing Aus ATC (RADAR)
Sun 06:32:07 AM -32.6693 150.5014 346° North 494 568 29,300 2,348 Climbing FlightAware ADS-B
Sun 06:32:38 AM -32.5942 150.4793 346° North 491 565 30,400 1,760 Climbing FlightAware ADS-B (YPLB)
Sun 06:33:22 AM -32.5031 150.4526 346° North 491 565 31,500 1,714 Climbing Aus ATC (RADAR)
Sun 06:33:27 AM -32.4923 150.4497 346° North 482 555 31,800 1,600 Climbing FlightAware ADS-B
Sun 06:34:07 AM -32.4026 150.4234 346° North 493 567 32,700 1,350 Climbing FlightAware ADS-B
Sun 06:34:47 AM -32.3158 150.3982 346° North 495 570 33,600 1,397 Climbing FlightAware ADS-B
Sun 06:35:20 AM -32.2327 150.3741 346° North 494 568 34,400 1,519 Climbing FlightAware ADS-B (YPLB)
Sun 06:36:06 AM -32.1385 150.3468 346° North 478 550 35,600 1,116 Climbing FlightAware ADS-B
Sun 06:36:46 AM -32.0527 150.3220 346° North 482 555 36,000 296 Climbing FlightAware ADS-B
Sun 06:37:27 AM -31.9626 150.2959 346° North 484 557 36,000  Level FlightAware ADS-B
Sun 06:38:05 AM -31.8767 150.2714 346° North 495 570 36,000  Level FlightAware ADS-B
Sun 06:38:41 AM -31.7928 150.2472 346° North 494 568 36,000  Level FlightAware ADS-B (YPLB)
Sun 06:39:26 AM -31.6953 150.2190 346° North 494 568 36,000  Level FlightAware ADS-B
Sun 06:40:11 AM -31.5952 150.1900 346° North 496 571 36,000  Level Aus ATC (RADAR)
Sun 06:40:22 AM -31.5699 150.1834 346° North 495 570 36,000  Level FlightAware ADS-B
Sun 06:41:31 AM -31.4156 150.1393 346° North 500 575 36,000  Level Aus ATC (RADAR)
Sun 06:41:56 AM -31.3601 150.1232 346° North 497 572 36,000  Level Aus ATC (RADAR)
Sun 06:42:34 AM -31.2745 150.0990 346° North 492 566 36,000  Level Aus ATC (RADAR)
Sun 06:43:34 AM -31.1400 150.0610 346° North 493 567 36,000  Level Aus ATC (RADAR)
Sun 06:43:59 AM -31.0838 150.0449 346° North 493 567 36,000  Level Aus ATC (RADAR)
Sun 06:44:34 AM -31.0051 150.0227 346° North 495 570 36,000  Level Aus ATC (RADAR)
Sun 06:45:21 AM -30.8987 149.9925 346° North 505 581 36,000  Level Aus ATC (RADAR)
Sun 06:45:56 AM -30.8187 149.9700 346° North 507 583 36,000  Level Aus ATC (RADAR)
Sun 06:46:46 AM -30.7046 149.9380 346° North 509 586 36,000  Level Aus ATC (RADAR)
Sun 06:47:11 AM -30.6471 149.9220 346° North 510 587 36,000  Level Aus ATC (RADAR)
Sun 06:47:46 AM -30.5672 149.8997 346° North 508 585 36,000  Level Aus ATC (RADAR)
Sun 06:48:31 AM -30.4639 149.8706 346° North 510 587 36,000  Level Aus ATC (RADAR)
Sun 06:48:55 AM -30.4064 149.8546 347° North 512 589 36,000  Level Aus ATC (RADAR)
Sun 06:49:31 AM -30.3259 149.8321 346° North 512 589 36,000  Level Aus ATC (RADAR)
Sun 06:50:20 AM -30.2089 149.8076 350° North 514 592 36,000  Level Aus ATC (RADAR)
Sun 06:50:55 AM -30.1276 149.7894 349° North 512 589 36,000  Level Aus ATC (RADAR)
Sun 06:51:40 AM -30.0230 149.7668 349° North 511 588 36,000  Level Aus ATC (RADAR)
Sun 06:52:08 AM -29.9578 149.7530 350° North 505 581 36,000  Level Aus ATC (RADAR)
Sun 06:52:43 AM -29.8762 149.7355 349° North 507 583 36,000  Level Aus ATC (RADAR)
Sun 06:53:43 AM -29.7369 149.7057 349° North 507 583 36,000  Level Aus ATC (RADAR)
Sun 06:54:08 AM -29.6788 149.6933 349° North 506 582 36,000  Level Aus ATC (RADAR)
Sun 06:54:43 AM -29.5967 149.6762 350° North 506 582 36,000  Level Aus ATC (RADAR)
Sun 06:55:28 AM -29.4920 149.6539 349° North 507 583 36,000 -146 Level Aus ATC (RADAR)
Sun 06:56:05 AM -29.4066 149.6358 350° North 513 590 35,800 -73 Descending Aus ATC (RADAR)
Sun 06:56:50 AM -29.3018 149.6138 350° North 512 589 35,900  Climbing Aus ATC (RADAR)
Sun 06:57:15 AM -29.2431 149.6017 350° North 514 592 35,800 -100 Descending Aus ATC (RADAR)
Sun 06:57:50 AM -29.1612 149.5845 350° North 514 592 35,800 122 Level Aus ATC (RADAR)
Sun 06:58:53 AM -29.0141 149.5522 349° North 510 587 36,000 136 Climbing Aus ATC (RADAR)
Sun 06:59:18 AM -28.9552 149.5399 350° North 512 589 36,000  Level Aus ATC (RADAR)
Sun 06:59:53 AM -28.8729 149.5227 350° North 514 592 36,000  Level Aus ATC (RADAR)
Sun 07:00:58 AM -28.7197 149.4904 350° North 515 593 36,000 92 Level Aus ATC (RADAR)
Sun 07:02:03 AM -28.5661 149.4585 350° North 517 595 36,200 93 Climbing Aus ATC (RADAR)
Sun 07:03:07 AM -28.4123 149.4267 350° North 517 595 36,200 -47 Level Aus ATC (RADAR)
Sun 07:04:12 AM -28.2584 149.3944 350° North 518 596 36,100 -46 Descending Aus ATC (RADAR)
Sun 07:05:17 AM -28.1090 149.3454 344° North 512 589 36,100 46 Level Aus ATC (RADAR)
Sun 07:06:22 AM -27.9612 149.2921 342° North 512 589 36,200  Climbing Aus ATC (RADAR)
Sun 07:07:27 AM -27.8140 149.2382 342° North 512 589 36,100 -46 Descending Aus ATC (RADAR)
Sun 07:08:32 AM -27.6664 149.1847 342° North 511 588 36,100  Level Aus ATC (RADAR)
Sun 07:09:37 AM -27.5190 149.1310 342° North 511 588 36,100  Level Aus ATC (RADAR)
Sun 07:10:42 AM -27.3716 149.0778 342° North 512 589 36,100  Level Aus ATC (RADAR)
Sun 07:11:48 AM -27.2188 149.0261 343° North 513 590 36,100  Level Aus ATC (RADAR)
Sun 07:12:52 AM -27.0768 148.9718 341° North 513 590 36,100  Level Aus ATC (RADAR)
Sun 07:14:11 AM -26.8956 148.9070 342° North 511 588 36,100  Level Aus ATC (RADAR)
Sun 07:15:06 AM -26.7709 148.8631 343° North 508 585 36,100  Level Aus ATC (RADAR)
Sun 07:16:11 AM -26.6232 148.8098 342° North 512 589 36,100  Level Aus ATC (RADAR)
Sun 07:17:26 AM -26.4495 148.7516 343° North 527 606 36,100  Level Aus ATC (RADAR)
Sun 07:18:31 AM -26.2987 148.7096 346° North 517 595 36,100  Level Aus ATC (RADAR)
Sun 07:19:36 AM -26.1465 148.6654 345° North 519 597 36,100  Level Aus ATC (RADAR)
Sun 07:20:41 AM -25.9951 148.6214 345° North 518 596 36,100  Level Aus ATC (RADAR)
Sun 07:21:46 AM -25.8425 148.5769 345° North 522 601 36,100  Level Aus ATC (RADAR)
Sun 07:22:51 AM -25.6905 148.5327 345° North 522 601 36,100  Level Aus ATC (RADAR)
Sun 07:23:51 AM -25.5492 148.4920 345° North 524 603 36,100  Level Aus ATC (RADAR)
Sun 07:24:56 AM -25.3964 148.4479 345° North 524 603 36,100  Level Aus ATC (RADAR)
Sun 07:26:01 AM -25.2436 148.4041 345° North 524 603 36,100  Level Aus ATC (RADAR)
Sun 07:27:05 AM -25.0900 148.3601 345° North 525 604 36,100  Level Aus ATC (RADAR)
Sun 07:28:10 AM -24.9358 148.3155 345° North 529 609 36,100  Level Aus ATC (RADAR)
Sun 07:29:30 AM -24.7463 148.2616 346° North 525 604 36,100  Level Aus ATC (RADAR)
Sun 07:30:25 AM -24.6150 148.2243 346° North 532 612 36,100  Level Aus ATC (RADAR)
Sun 07:31:30 AM -24.4599 148.1801 345° North 532 612 36,100  Level Aus ATC (RADAR)
Sun 07:32:45 AM -24.2805 148.1295 346° North 534 615 36,100  Level Aus ATC (RADAR)
Sun 07:33:50 AM -24.1254 148.0854 345° North 533 613 36,100  Level Aus ATC (RADAR)
Sun 07:34:55 AM -23.9696 148.0420 346° North 534 615 36,100  Level Aus ATC (RADAR)
Sun 07:36:00 AM -23.8138 147.9982 346° North 533 613 36,100  Level Aus ATC (RADAR)
Sun 07:37:00 AM -23.6704 147.9578 346° North 532 612 36,100  Level Aus ATC (RADAR)
Sun 07:38:09 AM -23.5034 147.9111 346° North 531 611 36,100 -47 Level Aus ATC (RADAR)
Sun 07:39:09 AM -23.3605 147.8711 346° North 532 612 36,000 -48 Descending Aus ATC (RADAR)
Sun 07:40:14 AM -23.2055 147.8286 346° North 531 611 36,000  Level Aus ATC (RADAR)
Sun 07:41:19 AM -23.0511 147.7854 346° North 529 609 36,000  Level Aus ATC (RADAR)
Sun 07:42:24 AM -22.8956 147.7419 346° North 533 613 36,000  Level Aus ATC (RADAR)
Sun 07:43:59 AM -22.6681 147.6795 346° North 532 612 36,000  Level Aus ATC (RADAR)
Sun 07:44:34 AM -22.5847 147.6562 346° North 532 612 36,000  Level Aus ATC (RADAR)
Sun 07:45:34 AM -22.4417 147.6134 345° North 533 613 36,000  Level Aus ATC (RADAR)
Sun 07:46:39 AM -22.2867 147.5672 345° North 536 617 36,000  Level Aus ATC (RADAR)
Sun 07:47:44 AM -22.1314 147.5211 345° North 535 616 36,000  Level Aus ATC (RADAR)
Sun 07:48:49 AM -21.9763 147.4754 345° North 534 615 36,000  Level Aus ATC (RADAR)
Sun 07:49:54 AM -21.8205 147.4295 345° North 536 617 36,000  Level Aus ATC (RADAR)
Sun 07:50:53 AM -21.6770 147.3871 345° North 536 617 36,000  Level Aus ATC (RADAR)
Sun 07:51:58 AM -21.5211 147.3415 345° North 538 619 36,000  Level Aus ATC (RADAR)
Sun 07:53:03 AM -21.3654 147.2959 345° North 535 616 36,000  Level Aus ATC (RADAR)
Sun 07:54:08 AM -21.2099 147.2505 345° North 537 618 36,000  Level Aus ATC (RADAR)
Sun 07:55:08 AM -21.0665 147.2088 345° North 535 616 36,000  Level Aus ATC (RADAR)
Sun 07:56:13 AM -20.9112 147.1637 345° North 534 615 36,000  Level Aus ATC (RADAR)
Sun 07:57:18 AM -20.7560 147.1188 345° North 535 616 36,000  Level Aus ATC (RADAR)
Sun 07:58:23 AM -20.6016 147.0737 345° North 531 611 36,000  Level Aus ATC (RADAR)
Sun 07:59:28 AM -20.4468 147.0297 345° North 531 611 36,000  Level Aus ATC (RADAR)
Sun 08:00:43 AM -20.2688 146.9784 345° North 531 611 36,000  Level Aus ATC (RADAR)
Sun 08:01:32 AM -20.1501 146.9443 345° North 530 610 36,000  Level Aus ATC (RADAR)
Sun 08:02:37 AM -19.9965 146.8997 345° North 529 609 36,000  Level Aus ATC (RADAR)
Sun 08:03:52 AM -19.8189 146.8493 345° North 530 610 36,000  Level Aus ATC (RADAR)
Sun 08:04:52 AM -19.6768 146.8091 345° North 529 609 36,000  Level Aus ATC (RADAR)
Sun 08:05:57 AM -19.5229 146.7654 345° North 530 610 36,000  Level Aus ATC (RADAR)
Sun 08:07:02 AM -19.3686 146.7219 345° North 531 611 36,000  Level Aus ATC (RADAR)
Sun 08:08:07 AM -19.2134 146.6778 345° North 532 612 36,000  Level Aus ATC (RADAR)
Sun 08:09:07 AM -19.0714 146.6365 345° North 530 610 36,000  Level Aus ATC (RADAR)
Sun 08:10:12 AM -18.9172 146.5933 345° North 528 608 36,000 46 Level Aus ATC (RADAR)
Sun 08:11:17 AM -18.7630 146.5491 345° North 530 610 36,100  Climbing Aus ATC (RADAR)
Sun 08:12:22 AM -18.6086 146.5057 345° North 530 610 36,000  Descending Aus ATC (RADAR)
Sun 08:13:22 AM -18.4663 146.4654 345° North 528 608 36,100  Climbing Aus ATC (RADAR)
Sun 08:14:27 AM -18.3127 146.4214 345° North 526 605 36,000 -47 Descending Aus ATC (RADAR)
Sun 08:15:31 AM -18.1589 146.3782 345° North 529 609 36,000  Level Aus ATC (RADAR)
Sun 08:16:31 AM -18.0173 146.3380 345° North 526 605 36,000  Level Aus ATC (RADAR)
Sun 08:17:36 AM -17.8640 146.2956 345° North 524 603 36,000  Level Aus ATC (RADAR)
Sun 08:18:31 AM -17.7349 146.2600 345° North 516 594 36,000  Level FlightAware ADS-B
Sun 08:19:12 AM -17.6412 146.2337 345° North 515 593 36,000  Level FlightAware ADS-B
Sun 08:19:46 AM -17.5592 146.2107 345° North 521 600 36,000  Level Aus ATC (RADAR)
Sun 08:19:52 AM -17.5463 146.2076 345° North 514 592 36,000  Level FlightAware ADS-B
Sun 08:20:32 AM -17.4508 146.1809 345° North 514 592 36,000  Level FlightAware ADS-B
Sun 08:21:12 AM -17.3573 146.1550 345° North 515 593 36,000  Level FlightAware ADS-B
Sun 08:21:53 AM -17.2645 146.1288 345° North 515 593 36,000  Level FlightAware ADS-B
Sun 08:22:32 AM -17.1722 146.1035 345° North 516 594 36,000  Level FlightAware ADS-B
Sun 08:23:11 AM -17.0777 146.0776 345° North 517 595 36,000  Level FlightAware ADS-B
Sun 08:23:53 AM -16.9820 146.0509 345° North 517 595 36,000 74 Level FlightAware ADS-B
Sun 08:24:32 AM -16.8873 146.0247 345° North 517 595 36,100 75 Climbing FlightAware ADS-B
Sun 08:25:13 AM -16.7913 145.9978 345° North 518 596 36,100  Level FlightAware ADS-B
Sun 08:25:53 AM -16.6963 145.9719 345° North 518 596 36,100  Level FlightAware ADS-B
Sun 08:26:34 AM -16.6019 145.9460 345° North 519 597 36,100 -83 Level FlightAware ADS-B
Sun 08:27:05 AM -16.5253 145.9248 345° North 525 604 36,000  Descending Aus ATC (RADAR)
Sun 08:27:13 AM -16.5070 145.9200 345° North 519 597 36,100 122 Climbing FlightAware ADS-B
Sun 08:27:54 AM -16.4105 145.8933 345° North 519 597 36,100 -74 Level FlightAware ADS-B
Sun 08:28:34 AM -16.3172 145.8681 345° North 519 597 36,000  Descending FlightAware ADS-B
Sun 08:29:13 AM -16.2235 145.8420 345° North 517 595 36,100  Climbing FlightAware ADS-B
Sun 08:29:53 AM -16.1300 145.8162 345° North 517 595 36,000 -75 Descending FlightAware ADS-B
Sun 08:30:33 AM -16.0380 145.7910 345° North 517 595 36,000  Level FlightAware ADS-B
Sun 08:31:14 AM -15.9403 145.7646 345° North 517 595 36,000  Level FlightAware ADS-B
Sun 08:31:45 AM -15.8660 145.7432 345° North 521 600 36,000  Level Aus ATC (RADAR)
Sun 08:31:54 AM -15.8464 145.7389 345° North 516 594 36,000  Level FlightAware ADS-B
Sun 08:32:32 AM -15.7582 145.7147 345° North 516 594 36,000  Level FlightAware ADS-B
Sun 08:33:35 AM -15.6095 145.6743 345° North 516 594 36,000  Level FlightAware ADS-B
Sun 08:34:14 AM -15.5178 145.6493 345° North 517 595 36,000  Level FlightAware ADS-B
Sun 08:34:55 AM -15.4216 145.6230 345° North 516 594 36,000  Level FlightAware ADS-B
Sun 08:35:34 AM -15.3264 145.5973 345° North 517 595 36,000  Level FlightAware ADS-B
Sun 08:36:19 AM -15.2207 145.5686 345° North 517 595 36,000  Level FlightAware ADS-B
Sun 08:37:00 AM -15.1258 145.5417 345° North 521 600 36,000  Level Aus ATC (RADAR)
Sun 08:38:05 AM -14.9732 145.5013 346° North 520 598 36,000 46 Level Aus ATC (RADAR)
Sun 08:39:10 AM -14.8209 145.4597 345° North 519 597 36,100  Climbing Aus ATC (RADAR)
Sun 08:40:09 AM -14.6808 145.4209 345° North 518 596 36,000 -47 Descending Aus ATC (RADAR)
Sun 08:41:19 AM -14.5181 145.3767 345° North 516 594 36,000  Level Aus ATC (RADAR)
Sun 08:42:24 AM -14.3673 145.3374 346° North 512 589 36,000  Level Aus ATC (RADAR)
Sun 08:43:24 AM -14.2253 145.3153 351° North 510 587 36,000  Level Aus ATC (RADAR)
Sun 08:44:39 AM -14.0485 145.2850 351° North 509 586 36,000  Level Aus ATC (RADAR)
Sun 08:45:44 AM -13.8944 145.2624 352° North 511 588 36,000  Level Aus ATC (RADAR)
Sun 08:46:44 AM -13.7526 145.2399 351° North 507 583 36,000 46 Level Aus ATC (RADAR)
Sun 08:47:54 AM -13.5869 145.2115 351° North 510 587 36,100  Climbing Aus ATC (RADAR)
Sun 08:48:59 AM -13.4329 145.1879 352° North 511 588 36,000 -48 Descending Aus ATC (RADAR)
Sun 08:49:58 AM -13.2910 145.1673 352° North 508 585 36,000  Level Aus ATC (RADAR)
Sun 08:51:03 AM -13.1373 145.1441 352° North 509 586 36,000 -48 Level Aus ATC (RADAR)
Sun 08:52:03 AM -12.9969 145.1129 348° North 510 587 35,900 -48 Descending Aus ATC (RADAR)
Sun 08:53:08 AM -12.8432 145.0906 352° North 509 586 35,900  Level Aus ATC (RADAR)
Sun 08:53:33 AM -12.7847 145.0815 351° North 508 585 35,900 Level Aus ATC (RADAR)
Sun 08:59:08 AM -12.0251 144.9645 355° North 36,000 Climbing Aus ATC (Calculated)
Sun 09:01:00 AM -11.8156 144.8437 331° Northwest  Level FlightAware Approximate
Sun 09:02:00 AM -11.9278 144.9084 151° Southeast  Level FlightAware Approximate
Sun 09:03:00 AM -12.0401 144.9731 151° Southeast  Level FlightAware Approximate
Sun 09:04:00 AM -11.9278 144.9084 331° Northwest  Level FlightAware Approximate
Sun 09:05:00 AM -12.0401 144.9731 151° Southeast  Level FlightAware Approximate
Sun 09:06:00 AM -11.9113 144.9363 351° North  Level FlightAware Approximate
Sun 09:07:00 AM -11.7839 144.9165 351° North  Level FlightAware Approximate
Sun 09:08:00 AM -11.6565 144.8968 351° North  Level FlightAware Approximate
Sun 09:09:00 AM -11.5291 144.8771 351° North  Level FlightAware Approximate
Sun 09:09:54 AM -10.4444 144.7160 356° North 36,000  Level Aus ATC (Calculated)
Sun 09:10:00 AM -11.4017 144.8575 351° North  Level FlightAware Approximate
Sun 09:11:00 AM -10.3043 144.6942 351° North  Level FlightAware Approximate
Sun 09:12:00 AM -10.1769 144.6745 351° North  Level FlightAware Approximate
Sun 09:13:00 AM -10.0495 144.6547 351° North  Level FlightAware Approximate
Sun 09:14:00 AM -9.9221 144.6350 351° North  Level FlightAware Approximate
Sun 09:15:00 AM -9.7947 144.6153 351° North  Level FlightAware Approximate
Sun 09:16:00 AM -9.6673 144.5956 351° North  Level FlightAware Approximate
Sun 09:17:00 AM -9.5399 144.5759 351° North  Level FlightAware Approximate
Sun 09:18:00 AM -9.4125 144.5563 351° North  Level FlightAware Approximate
Sun 09:19:00 AM -9.2852 144.5366 351° North  Level FlightAware Approximate
Sun 09:19:06 AM -9.1238 144.5103 357° North 36,000  Level Aus ATC (Calculated)
Sun 09:20:00 AM -9.1578 144.5170 351° North  Level FlightAware Approximate
Sun 09:21:00 AM -8.8817 144.4733 351° North  Level FlightAware Approximate
Sun 09:22:00 AM -8.7543 144.4538 351° North  Level FlightAware Approximate
Sun 09:23:00 AM -8.6269 144.4343 351° North  Level FlightAware Approximate
Sun 09:24:00 AM -8.4995 144.4148 351° North  Level FlightAware Approximate
Sun 09:25:00 AM -8.3721 144.3954 351° North  Level FlightAware Approximate
Sun 09:26:00 AM -8.2447 144.3760 351° North  Level FlightAware Approximate
Sun 09:27:00 AM -8.1172 144.3566 351° North  Level FlightAware Approximate
Sun 09:28:00 AM -7.9898 144.3371 351° North  Level FlightAware Approximate
Sun 09:29:00 AM -7.8624 144.3177 351° North  Level FlightAware Approximate
Sun 09:30:00 AM -7.7350 144.2984 351° North  Level FlightAware Approximate
Sun 09:31:00 AM -7.6076 144.2790 351° North  Level FlightAware Approximate
Sun 09:32:00 AM -7.4801 144.2596 351° North  Level FlightAware Approximate
Sun 09:33:00 AM -7.3527 144.2403 351° North  Level FlightAware Approximate
Sun 09:34:00 AM -7.4801 144.2596 171° South  Level FlightAware Approximate
Sun 09:35:00 AM -7.3527 144.2403 351° North  Level FlightAware Approximate
Sun 09:36:00 AM -7.4801 144.2596 171° South  Level FlightAware Approximate
Sun 09:37:00 AM -7.3527 144.2403 351° North  Level FlightAware Approximate
Sun 09:38:00 AM -7.4801 144.2596 171° South  Level FlightAware Approximate
Sun 09:38:05 AM -6.4395 144.2148 358° North 38,000  Level Aus ATC (Calculated)
Sun 09:40:00 AM -6.6863 144.2237 178° South  Level FlightAware Approximate
Sun 09:41:00 AM -6.5647 144.1808 358° North  Level Estimated
Sun 09:42:00 AM -6.4359 144.1773 358° North  Level FlightAware Approximate
Sun 09:43:00 AM -6.3070 144.1737 358° North  Level FlightAware Approximate
Sun 09:44:00 AM -6.1782 144.1701 358° North  Level FlightAware Approximate
Sun 09:45:00 AM -6.0494 144.1665 358° North  Level FlightAware Approximate
Sun 09:46:00 AM -5.9206 144.1630 358° North  Level FlightAware Approximate
Sun 09:47:00 AM -5.7918 144.1594 358° North  Level FlightAware Approximate
Sun 09:48:00 AM -5.6630 144.1558 358° North  Level FlightAware Approximate
Sun 09:49:00 AM -5.5342 144.1523 358° North  Level FlightAware Approximate
Sun 09:50:00 AM -5.4054 144.1487 358° North  Level FlightAware Approximate
Sun 09:51:00 AM -5.2766 144.1451 358° North  Level FlightAware Approximate
Sun 09:52:00 AM -5.1477 144.1416 358° North  Level FlightAware Approximate
Sun 09:53:00 AM -5.0189 144.1380 358° North  Level FlightAware Approximate
Sun 09:54:00 AM -4.8901 144.1344 358° North  Level FlightAware Approximate
Sun 09:55:00 AM -4.7613 144.1309 358° North  Level FlightAware Approximate
Sun 09:56:00 AM -4.6325 144.1273 358° North  Level FlightAware Approximate
Sun 09:57:00 AM -4.5037 144.1238 358° North  Level FlightAware Approximate
Sun 09:58:00 AM -4.3749 144.1202 358° North  Level FlightAware Approximate
Sun 09:59:00 AM -4.2461 144.1167 358° North  Level FlightAware Approximate
Sun 10:00:00 AM -4.1173 144.1131 358° North  Level FlightAware Approximate
Sun 10:01:00 AM -3.9885 144.1096 358° North  Level FlightAware Approximate
Sun 10:02:00 AM -3.8596 144.1060 358° North  Level FlightAware Approximate
Sun 10:03:00 AM -3.7308 144.1025 358° North  Level FlightAware Approximate
Sun 10:04:00 AM -3.6020 144.0989 358° North  Level FlightAware Approximate
Sun 10:05:00 AM -3.4732 144.0954 358° North  Level FlightAware Approximate
Sun 10:06:00 AM -3.3444 144.0918 358° North  Level FlightAware Approximate
Sun 10:07:00 AM -3.2156 144.0883 358° North  Level FlightAware Approximate
Sun 10:08:00 AM -3.0868 144.0847 358° North  Level FlightAware Approximate
Sun 10:09:00 AM -2.9580 144.0812 358° North  Level FlightAware Approximate
Sun 10:10:00 AM -2.8292 144.0777 358° North  Level FlightAware Approximate
Sun 10:11:00 AM -2.7004 144.0741 358° North  Level FlightAware Approximate
Sun 10:12:00 AM -2.5715 144.0706 358° North  Level FlightAware Approximate
Sun 10:13:00 AM -2.4427 144.0670 358° North  Level FlightAware Approximate
Sun 10:14:00 AM -2.3139 144.0635 358° North  Level FlightAware Approximate
Sun 10:15:00 AM -2.1851 144.0600 358° North  Level FlightAware Approximate
Sun 10:16:00 AM -2.0563 144.0564 358° North  Level FlightAware Approximate
Sun 10:17:00 AM -1.9275 144.0529 358° North  Level FlightAware Approximate
Sun 10:18:00 AM -1.7987 144.0493 358° North  Level FlightAware Approximate
Sun 10:19:00 AM -1.6699 144.0458 358° North  Level FlightAware Approximate
Sun 10:20:00 AM -1.5411 144.0423 358° North  Level FlightAware Approximate
Sun 10:21:00 AM -1.4123 144.0387 358° North  Level FlightAware Approximate
Sun 10:22:00 AM -1.2835 144.0352 358° North  Level FlightAware Approximate
Sun 10:23:00 AM -1.1546 144.0317 358° North  Level FlightAware Approximate
Sun 10:24:00 AM -1.0258 144.0282 358° North  Level FlightAware Approximate
Sun 10:24:53 AM 0.1667 143.9833 356° North 488 562 36,000  Level Oakland Oceanic (ODAPS)
Sun 10:29:26 AM 0.7167 143.9500 356° North 488 562 36,000  Level Oakland Oceanic (ODAPS)
Sun 10:42:29 AM 2.6833 143.8000 355° North 485 558 36,000  Level Oakland Oceanic (ODAPS)
Sun 10:56:22 AM 4.6167 143.6500 355° North 484 557 36,000  Level Oakland Oceanic (ODAPS)
Sun 10:59:02 AM 5.0000 143.6167 351° North 477 549 36,000  Level Oakland Oceanic (ODAPS)
Sun 11:10:14 AM 6.5333 143.3667 351° North 473 544 36,000  Level Oakland Oceanic (ODAPS)
Sun 11:24:05 AM 8.4500 143.0667 351° North 479 551 36,000  Level Oakland Oceanic (ODAPS)
Sun 11:35:18 AM 9.9833 142.8333 356° North 500 575 36,000  Level Guam Center
Sun 11:36:00 AM 10.0148 142.8251 356° North 479 551 36,000  Level FlightAware Transoceanic
Sun 11:36:18 AM 10.1167 142.8167 353° North 490 564 36,000  Level Guam Center
Sun 11:37:00 AM 10.1463 142.8168 356° North 479 551 36,000  Level FlightAware Transoceanic
Sun 11:37:19 AM 10.2500 142.8000 353° North 490 564 36,000  Level Guam Center
Sun 11:38:00 AM 10.2778 142.8085 356° North 479 551 36,000  Level FlightAware Transoceanic
Sun 11:38:19 AM 10.4000 142.7833 354° North 490 564 36,000  Level Guam Center
Sun 11:39:00 AM 10.4093 142.8002 356° North 479 551 36,000  Level FlightAware Transoceanic
Sun 11:39:19 AM 10.5333 142.7667 353° North 490 564 36,000  Level Guam Center
Sun 11:40:00 AM 10.5407 142.7919 356° North 479 551 36,000  Level FlightAware Transoceanic
Sun 11:40:19 AM 10.6667 142.7500 353° North 490 564 36,000  Level Guam Center
Sun 11:41:19 AM 10.8000 142.7333 353° North 490 564 36,000  Level Guam Center
Sun 11:42:19 AM 10.9333 142.7000 346° North 490 564 36,000  Level Guam Center
Sun 11:43:19 AM 11.0667 142.6833 353° North 490 564 36,000  Level Guam Center
Sun 11:44:20 AM 11.2167 142.6667 354° North 490 564 36,000  Level Guam Center
Sun 11:45:20 AM 11.3500 142.6500 353° North 500 575 36,000  Level Guam Center
Sun 11:46:20 AM 11.4833 142.6333 353° North 490 564 36,000  Level Guam Center
Sun 11:47:20 AM 11.6167 142.6167 353° North 480 552 36,000  Level Guam Center
Sun 11:48:20 AM 11.7500 142.6000 353° North 490 564 36,000  Level Guam Center
Sun 11:49:20 AM 11.8667 142.5833 352° North 490 564 36,000  Level Guam Center
Sun 11:50:21 AM 12.0333 142.5667 354° North 500 575 36,000  Level Guam Center
Sun 11:51:21 AM 12.1667 142.5333 346° North 500 575 36,000  Level Guam Center
Sun 11:52:20 AM 12.3000 142.5167 353° North 490 564 36,000  Level Guam Center
Sun 11:53:20 AM 12.4333 142.5000 353° North 490 564 36,000  Level Guam Center
Sun 11:54:21 AM 12.5833 142.4833 354° North 500 575 36,000  Level Guam Center
Sun 11:55:21 AM 12.7167 142.4667 353° North 500 575 36,000  Level Guam Center
Sun 11:56:21 AM 12.8500 142.4500 353° North 500 575 36,000  Level Guam Center
Sun 11:57:21 AM 13.0000 142.4333 354° North 500 575 36,000  Level Guam Center
Sun 11:58:21 AM 13.1333 142.4167 353° North 500 575 36,000  Level Guam Center
Sun 11:59:21 AM 13.2667 142.4000 353° North 500 575 36,000  Level Guam Center
Sun 12:00:22 PM 13.4000 142.3833 353° North 500 575 36,000  Level Guam Center
Sun 12:01:22 PM 13.5500 142.3500 348° North 490 564 36,000  Level Guam Center
Sun 12:02:22 PM 13.6833 142.3333 353° North 490 564 36,000  Level Guam Center
Sun 12:03:22 PM 13.8167 142.3167 353° North 490 564 36,000  Level Guam Center
Sun 12:04:22 PM 13.9500 142.3000 353° North 490 564 36,000  Level Guam Center
Sun 12:05:22 PM 14.0833 142.2833 353° North 480 552 36,000  Level Guam Center
Sun 12:06:22 PM 14.2167 142.2667 353° North 480 552 36,000  Level Guam Center
Sun 12:07:23 PM 14.3500 142.2500 353° North 490 564 36,000  Level Guam Center
Sun 12:08:23 PM 14.4833 142.2333 353° North 490 564 36,000  Level Guam Center
Sun 12:09:23 PM 14.6167 142.2167 353° North 490 564 36,000  Level Guam Center
Sun 12:10:23 PM 14.7667 142.2000 354° North 500 575 36,000  Level Guam Center
Sun 12:11:23 PM 14.9000 142.1667 346° North 490 564 36,000  Level Guam Center
Sun 12:12:23 PM 15.0333 142.1500 353° North 500 575 36,000  Level Guam Center
Sun 12:13:24 PM 15.1667 142.1333 353° North 500 575 36,000  Level Guam Center
Sun 12:14:24 PM 15.3167 142.1167 354° North 500 575 36,000  Level Guam Center
Sun 12:15:24 PM 15.4500 142.1000 353° North 500 575 36,000  Level Guam Center
Sun 12:16:24 PM 15.5833 142.0833 353° North 500 575 36,000  Level Guam Center
Sun 12:23:39 PM 16.5833 141.9500 319° Northwest 458 527 36,000  Level Oakland Oceanic (ODAPS)
Sun 12:28:15 PM 16.8167 141.7333 319° Northwest 458 527 36,000  Level Oakland Oceanic (ODAPS)
Sun 12:36:41 PM 17.9167 140.7333 319° Northwest 453 521 36,000  Level Oakland Oceanic (ODAPS)
Sun 12:50:56 PM 19.3000 139.4500 318° Northwest 453 521 36,000  Level Oakland Oceanic (ODAPS)
Sun 01:04:33 PM 20.6500 138.1667 317° Northwest 436 502 36,000  Level Oakland Oceanic (ODAPS)
Sun 01:05:00 PM 20.7177 138.0914 318° Northwest 453 521 36,000  Level FlightAware Transoceanic
Sun 01:06:00 PM 20.8119 137.9999 318° Northwest 453 521 36,000  Level FlightAware Transoceanic
Sun 01:07:00 PM 20.9060 137.9084 318° Northwest 453 521 36,000  Level FlightAware Transoceanic
Sun 01:08:00 PM 21.0000 137.8167 330° Northwest 453 521 36,000  Level FlightAware Transoceanic
Sun 01:09:00 PM 21.1052 137.7529 330° Northwest 453 521 36,000  Level FlightAware Transoceanic
Sun 01:10:00 PM 21.2104 137.6890 330° Northwest 436 502 36,000  Level FlightAware Transoceanic
Sun 01:11:00 PM 21.3155 137.6250 330° Northwest 436 502 36,000  Level FlightAware Transoceanic
Sun 01:12:00 PM 21.4207 137.5609 330° Northwest 436 502 36,000  Level FlightAware Transoceanic
Sun 01:13:00 PM 21.5258 137.4967 330° Northwest 436 502 36,000  Level FlightAware Transoceanic
Sun 01:14:00 PM 21.6309 137.4324 330° Northwest 436 502 36,000  Level FlightAware Transoceanic
Sun 01:15:00 PM 21.7359 137.3681 330° Northwest 436 502 36,000  Level FlightAware Transoceanic
Sun 01:16:00 PM 21.8409 137.3036 330° Northwest 436 502 36,000  Level FlightAware Transoceanic
Sun 01:17:00 PM 21.9459 137.2391 330° Northwest 436 502 36,000  Level FlightAware Transoceanic
Sun 01:18:00 PM 22.0509 137.1744 330° Northwest 436 502 36,000  Level FlightAware Transoceanic
Sun 01:19:00 PM 22.1559 137.1097 330° Northwest 436 502 36,000  Level FlightAware Transoceanic
Sun 01:20:00 PM 22.2608 137.0448 330° Northwest 436 502 36,000  Level FlightAware Transoceanic
Sun 01:21:00 PM 22.3657 136.9799 330° Northwest 436 502 36,000  Level FlightAware Transoceanic
Sun 01:22:00 PM 22.4706 136.9149 330° Northwest 436 502 36,000  Level FlightAware Transoceanic
Sun 01:23:00 PM 22.5755 136.8497 330° Northwest 436 502 36,000  Level FlightAware Transoceanic
Sun 01:24:00 PM 22.6803 136.7845 330° Northwest 436 502 36,000  Level FlightAware Transoceanic
Sun 01:25:00 PM 22.7851 136.7192 330° Northwest 436 502 36,000  Level FlightAware Transoceanic
Sun 01:26:00 PM 22.8899 136.6537 330° Northwest 436 502 36,000  Level FlightAware Transoceanic
Sun 01:27:00 PM 22.9946 136.5882 330° Northwest 436 502 36,000  Level FlightAware Transoceanic
Sun 01:28:00 PM 23.0993 136.5226 330° Northwest 436 502 36,000  Level FlightAware Transoceanic
Sun 01:29:00 PM 23.2040 136.4568 330° Northwest 436 502 36,000  Level FlightAware Transoceanic
Sun 01:30:00 PM 23.3087 136.3910 330° Northwest 436 502 36,000  Level FlightAware Transoceanic
Sun 01:31:00 PM 23.4133 136.3250 330° Northwest 436 502 36,000  Level FlightAware Transoceanic
Sun 01:32:00 PM 23.5179 136.2590 330° Northwest 436 502 36,000  Level FlightAware Transoceanic
Sun 01:33:00 PM 23.6225 136.1928 330° Northwest 436 502 36,000  Level FlightAware Transoceanic
Sun 01:34:00 PM 23.7271 136.1266 330° Northwest 436 502 36,000  Level FlightAware Transoceanic
Sun 01:35:00 PM 23.8316 136.0602 330° Northwest 436 502 36,000  Level FlightAware Transoceanic
Sun 01:36:00 PM 23.9361 135.9937 330° Northwest 436 502 36,000  Level FlightAware Transoceanic
Sun 01:37:00 PM 24.0406 135.9272 330° Northwest 436 502 36,000  Level FlightAware Transoceanic
Sun 01:38:00 PM 24.1450 135.8605 330° Northwest 436 502 36,000  Level FlightAware Transoceanic
Sun 01:39:00 PM 24.2494 135.7937 330° Northwest 436 502 36,000  Level FlightAware Transoceanic
Sun 01:40:00 PM 24.3538 135.7268 330° Northwest 436 502 36,000  Level FlightAware Transoceanic
Sun 01:41:00 PM 24.4581 135.6597 330° Northwest 436 502 36,000  Level FlightAware Transoceanic
Sun 01:42:00 PM 24.5625 135.5926 330° Northwest 436 502 36,000  Level FlightAware Transoceanic
Sun 01:43:00 PM 24.6667 135.5254 330° Northwest 436 502 36,000  Level FlightAware Transoceanic
Sun 01:44:00 PM 24.7710 135.4580 330° Northwest 436 502 36,000  Level FlightAware Transoceanic
Sun 01:45:00 PM 24.8752 135.3905 330° Northwest 436 502 36,000  Level FlightAware Transoceanic
Sun 01:46:00 PM 24.9795 135.3230 330° Northwest 436 502 36,000  Level FlightAware Transoceanic
Sun 01:47:00 PM 25.0836 135.2553 329° Northwest 436 502 36,000  Level FlightAware Transoceanic
Sun 01:48:00 PM 25.1878 135.1875 329° Northwest 436 502 36,000  Level FlightAware Transoceanic
Sun 01:49:00 PM 25.2919 135.1195 329° Northwest 436 502 36,000  Level FlightAware Transoceanic
Sun 01:50:00 PM 25.3960 135.0515 329° Northwest 436 502 36,000  Level FlightAware Transoceanic
Sun 01:51:00 PM 25.5056 134.9784 329° Northwest  Level FlightAware Approximate
Sun 01:52:00 PM 25.6153 134.9051 329° Northwest  Level FlightAware Approximate
Sun 01:53:00 PM 25.7250 134.8317 329° Northwest  Level FlightAware Approximate
Sun 01:54:00 PM 25.8345 134.7582 329° Northwest  Level FlightAware Approximate
Sun 01:55:00 PM 25.9441 134.6845 329° Northwest  Level FlightAware Approximate
Sun 01:56:00 PM 26.0536 134.6107 329° Northwest  Level FlightAware Approximate
Sun 01:57:00 PM 26.1631 134.5368 329° Northwest  Level FlightAware Approximate
Sun 01:58:00 PM 26.2725 134.4627 329° Northwest  Level FlightAware Approximate
Sun 01:59:00 PM 26.3819 134.3885 329° Northwest  Level FlightAware Approximate
Sun 02:00:00 PM 26.4913 134.3141 329° Northwest  Level FlightAware Approximate
Sun 02:01:00 PM 26.6006 134.2396 329° Northwest  Level FlightAware Approximate
Sun 02:02:00 PM 26.7099 134.1650 329° Northwest  Level FlightAware Approximate
Sun 02:03:00 PM 26.8192 134.0902 329° Northwest  Level FlightAware Approximate
Sun 02:04:00 PM 26.9284 134.0152 329° Northwest  Level FlightAware Approximate
Sun 02:05:00 PM 27.0376 133.9402 329° Northwest  Level FlightAware Approximate
Sun 02:06:00 PM 27.1467 133.8649 328° Northwest  Level FlightAware Approximate
Sun 02:07:00 PM 27.2558 133.7896 328° Northwest  Level FlightAware Approximate
Sun 02:08:00 PM 27.3648 133.7141 328° Northwest  Level FlightAware Approximate
Sun 02:09:00 PM 27.4738 133.6384 328° Northwest  Level FlightAware Approximate
Sun 02:10:00 PM 27.5828 133.5626 328° Northwest  Level FlightAware Approximate
Sun 02:11:00 PM 27.6917 133.4866 328° Northwest  Level FlightAware Approximate
Sun 02:12:00 PM 27.8006 133.4105 328° Northwest  Level FlightAware Approximate
Sun 02:13:00 PM 27.9095 133.3342 328° Northwest  Level FlightAware Approximate
Sun 02:14:00 PM 28.0183 133.2578 328° Northwest  Level FlightAware Approximate
Sun 02:15:00 PM 28.1270 133.1812 328° Northwest  Level FlightAware Approximate
Sun 02:16:00 PM 28.2358 133.1045 328° Northwest  Level FlightAware Approximate
Sun 02:17:00 PM 28.3444 133.0276 328° Northwest  Level FlightAware Approximate
Sun 02:18:00 PM 28.4531 132.9505 328° Northwest  Level FlightAware Approximate
Sun 02:19:00 PM 28.4591 132.9462 328° Northwest  Level FlightAware Approximate
Sun 02:20:00 PM 28.5677 132.8689 328° Northwest  Level FlightAware Approximate
Sun 02:21:00 PM 28.6762 132.7915 328° Northwest  Level FlightAware Approximate
Sun 02:22:00 PM 28.7847 132.7139 328° Northwest  Level FlightAware Approximate
Sun 02:23:00 PM 28.8931 132.6361 328° Northwest  Level FlightAware Approximate
Sun 02:24:00 PM 29.0015 132.5582 328° Northwest  Level FlightAware Approximate
Sun 02:25:00 PM 29.1098 132.4801 328° Northwest  Level FlightAware Approximate
Sun 02:26:00 PM 29.2181 132.4019 328° Northwest  Level FlightAware Approximate
Sun 02:27:00 PM 29.3263 132.3235 328° Northwest  Level FlightAware Approximate
Sun 02:28:00 PM 29.4345 132.2449 328° Northwest  Level FlightAware Approximate
Sun 02:29:00 PM 29.5427 132.1662 328° Northwest  Level FlightAware Approximate
Sun 02:30:00 PM 29.6508 132.0872 328° Northwest  Level FlightAware Approximate
Sun 02:31:00 PM 29.7589 132.0082 328° Northwest  Level FlightAware Approximate
Sun 02:32:00 PM 29.8669 131.9290 328° Northwest  Level FlightAware Approximate
Sun 02:33:00 PM 29.9749 131.8496 328° Northwest  Level FlightAware Approximate
Sun 02:34:00 PM 30.0828 131.7700 327° Northwest  Level FlightAware Approximate
Sun 02:35:00 PM 30.1907 131.6902 327° Northwest  Level FlightAware Approximate
Sun 02:36:00 PM 30.2985 131.6104 327° Northwest  Level FlightAware Approximate
Sun 02:37:00 PM 30.4064 131.5304 327° Northwest  Level FlightAware Approximate
Sun 02:38:00 PM 30.5142 131.4503 327° Northwest  Level FlightAware Approximate
Sun 02:39:00 PM 30.6219 131.3699 327° Northwest  Level FlightAware Approximate
Sun 02:40:00 PM 30.7296 131.2894 327° Northwest  Level FlightAware Approximate
Sun 02:41:00 PM 30.8373 131.2087 327° Northwest  Level FlightAware Approximate
Sun 02:42:00 PM 30.9449 131.1278 327° Northwest  Level FlightAware Approximate
Sun 02:43:00 PM 31.0524 131.0468 327° Northwest  Level FlightAware Approximate
Sun 02:44:00 PM 31.1599 130.9655 327° Northwest  Level FlightAware Approximate
Sun 02:45:00 PM 31.2673 130.8841 327° Northwest  Level FlightAware Approximate
Sun 02:46:00 PM 31.3747 130.8025 327° Northwest  Level FlightAware Approximate
Sun 02:47:00 PM 31.4821 130.7207 327° Northwest  Level FlightAware Approximate
Sun 02:48:00 PM 31.5894 130.6387 327° Northwest  Level FlightAware Approximate
Sun 02:49:00 PM 31.6975 130.5583 333° Northwest  Level FlightAware Approximate
Sun 02:50:00 PM 31.8119 130.4907 333° Northwest  Level FlightAware Approximate
Sun 02:51:00 PM 31.9263 130.4229 333° Northwest  Level FlightAware Approximate
Sun 02:52:00 PM 32.0406 130.3549 333° Northwest  Level FlightAware Approximate
Sun 02:53:00 PM 32.1549 130.2868 333° Northwest  Level FlightAware Approximate
Sun 02:54:00 PM 32.2692 130.2185 333° Northwest  Level FlightAware Approximate
Sun 02:55:00 PM 32.3834 130.1500 333° Northwest  Level FlightAware Approximate
Sun 02:56:00 PM 32.4976 130.0816 333° Northwest  Level FlightAware Approximate
Sun 02:57:00 PM 32.6120 130.0134 333° Northwest  Level FlightAware Approximate
Sun 02:58:00 PM 32.7264 129.9450 333° Northwest  Level FlightAware Approximate
Sun 02:59:00 PM 32.8407 129.8764 333° Northwest  Level FlightAware Approximate
Sun 03:00:00 PM 32.9550 129.8076 333° Northwest  Level FlightAware Approximate
Sun 03:01:00 PM 33.0693 129.7387 333° Northwest  Level FlightAware Approximate
Sun 03:02:00 PM 33.1834 129.6694 333° Northwest  Level FlightAware Approximate
Sun 03:03:00 PM 33.2973 129.5995 333° Northwest  Level FlightAware Approximate
Sun 03:04:00 PM 33.4112 129.5294 333° Northwest  Level FlightAware Approximate
Sun 03:05:00 PM 33.5251 129.4592 333° Northwest  Level FlightAware Approximate
Sun 03:06:00 PM 33.6389 129.3888 333° Northwest  Level FlightAware Approximate
Sun 03:07:00 PM 33.7526 129.3182 333° Northwest  Level FlightAware Approximate
Sun 03:08:00 PM 33.8664 129.2474 333° Northwest  Level FlightAware Approximate
Sun 03:09:00 PM 33.9801 129.1764 333° Northwest  Level FlightAware Approximate
Sun 03:10:00 PM 34.0937 129.1052 333° Northwest  Level FlightAware Approximate
Sun 03:11:00 PM 34.2073 129.0338 333° Northwest  Level FlightAware Approximate
Sun 03:12:00 PM 34.3209 128.9623 333° Northwest  Level FlightAware Approximate
Sun 03:13:00 PM 34.4344 128.8906 333° Northwest  Level FlightAware Approximate
Sun 03:14:00 PM 34.5479 128.8188 332° Northwest  Level FlightAware Approximate
Sun 03:15:00 PM 34.6614 128.7467 332° Northwest  Level FlightAware Approximate
Sun 03:16:00 PM 34.7749 128.6745 332° Northwest  Level FlightAware Approximate
Sun 03:17:00 PM 34.8883 128.6021 332° Northwest  Level FlightAware Approximate
Sun 03:18:00 PM 35.0017 128.5295 332° Northwest  Level FlightAware Approximate
Sun 03:19:00 PM 35.1150 128.4566 332° Northwest  Level FlightAware Approximate
Sun 03:20:00 PM 35.2282 128.3836 332° Northwest  Level FlightAware Approximate
Sun 03:21:00 PM 35.3415 128.3104 332° Northwest  Level FlightAware Approximate
Sun 03:22:00 PM 35.4547 128.2370 332° Northwest  Level FlightAware Approximate
Sun 03:23:00 PM 35.5678 128.1633 332° Northwest  Level FlightAware Approximate
Sun 03:24:00 PM 35.6809 128.0895 332° Northwest  Level FlightAware Approximate
Sun 03:25:00 PM 35.7926 128.0126 327° Northwest  Level FlightAware Approximate
Sun 03:26:00 PM 35.9028 127.9326 332° Northwest  Level FlightAware Approximate
Sun 03:27:00 PM 36.0163 127.8593 332° Northwest  Level FlightAware Approximate
Sun 03:28:00 PM 36.1297 127.7857 332° Northwest  Level FlightAware Approximate
Sun 03:29:00 PM 36.2403 127.7065 332° Northwest  Level FlightAware Approximate
Sun 03:30:00 PM 36.3531 127.6313 332° Northwest  Level FlightAware Approximate
Sun 03:31:00 PM 36.4659 127.5561 332° Northwest  Level FlightAware Approximate
Sun 03:32:00 PM 36.5788 127.4809 332° Northwest  Level FlightAware Approximate
Sun 03:33:00 PM 36.6918 127.4058 332° Northwest  Level FlightAware Approximate
Sun 03:34:00 PM 36.8047 127.3307 332° Northwest  Level FlightAware Approximate
Sun 03:35:00 PM 36.9177 127.2553 332° Northwest  Level FlightAware Approximate
Sun 03:36:00 PM 37.0306 127.1797 332° Northwest  Level FlightAware Approximate
Sun 03:37:00 PM 37.1410 127.0984 329° Northwest  Level FlightAware Approximate
Sun 03:38:00 PM 37.2529 127.0204 332° Northwest  Level FlightAware Approximate
Sun 03:39:00 PM 37.3660 126.9449 332° Northwest  Level FlightAware Approximate
Sun 03:40:00 PM 37.4213 126.8103 284° West  Level FlightAware Approximate
Sun 03:41:00 PM 37.4500 126.6570 270° West  Level FlightAware Approximate
Sun 03:42:00 PM 37.4740 126.4987 280° West  Level FlightAware Approximate
Sun 03:43:00 PM 37.4691 126.4505 280° West  Level Estimated
Sun 03:44:00 PM 37.4691 126.4505 280° West  Level Estimated
Sun 03:45:00 PM 37.4691 126.4505 280° West  Level Estimated
Sun 03:46:00 PM 37.4691 126.4505 280° West  Level Estimated
Sun 03:47:00 PM 37.4691 126.4505 280° West  Level Estimated
Sun 03:48:00 PM 37.4691 126.4505 280° West  Level Estimated
Sun 03:49:00 PM 37.4691 126.4505 280° West  Level Estimated
Sun 03:50:00 PM 37.4691 126.4505 280° West  Level Estimated
Sun 03:51:00 PM 37.4691 126.4505 280° West  Level Estimated
Sun 03:52:00 PM 37.4691 126.4505 280° West  Level Estimated
Sun 03:53:00 PM 37.4691 126.4505 280° West  Level Estimated
Sun 03:54:00 PM 37.4691 126.4505 280° West  Level Estimated
Sun 03:55:00 PM 37.4691 126.4505 280° West  Level Estimated
Sun 03:56:00 PM 37.4691 126.4505 280° West  Level Estimated
Sun 03:57:00 PM 37.4691 126.4505 280° West  Level Estimated
Sun 03:58:00 PM 37.4691 126.4505 280° West  Level Estimated
Sun 03:59:00 PM 37.4691 126.4505 280° West  Level Estimated
Sun 04:00:00 PM 37.4691 126.4505 280° West  Level Estimated
Sun 04:01:00 PM 37.4691 126.4505 280° West  Level Estimated
Sun 04:02:00 PM 37.4691 126.4505 280° West  Level Estimated
Sun 04:03:00 PM 37.4691 126.4505 280° West  Level Estimated
Sun 04:04:00 PM 37.4691 126.4505 280° West  Level Estimated
Sun 04:05:00 PM 37.4691 126.4505 280° West  Level Estimated
Sun 04:06:00 PM 37.4691 126.4505 280° West  Level Estimated
Sun 04:07:00 PM 37.4691 126.4505 280° West  Level Estimated
Sun 04:08:00 PM 37.4691 126.4505 280° West  Level Estimated
Sun 04:09:00 PM 37.4691 126.4505 280° West  Level Estimated
Sun 04:10:00 PM 37.4691 126.4505 280° West  Level Estimated
Sun 04:11:00 PM 37.4691 126.4505 280° West  Level Estimated
Sun 04:12:00 PM 37.4691 126.4505 280° West  Level Estimated
Sun 04:13:00 PM 37.4691 126.4505 280° West  Level Estimated

Login

Don't have an account? Register now (free) for customized features, flight alerts, and more!